Time;durP1;ratioP1;P1;durP2;ratioP2;P2;SDS_P1;SDS_P2;PMS_P1;PMS_P2;Temp;Humidity;BMP_temperature;BMP_pressure;BME280_temperature;BME280_humidity;BME280_pressure;Samples;Min_cycle;Max_cycle;Signal;HPM_P1;HPM_P2
2022/06/04 00:01:29;;;;;;;7.62;5.42;;;;;;;15.65;73.13;100491.61;1631593;87;21021;-74
2022/06/04 00:03:58;;;;;;;5.03;4.53;;;;;;;15.66;73.17;100485.11;1593831;87;21248;-71
2022/06/04 00:06:24;;;;;;;5.15;4.65;;;;;;;15.69;72.74;100482.68;1609965;89;21052;-70
2022/06/04 00:08:51;;;;;;;4.47;4.17;;;;;;;15.67;72.56;100480.79;1604307;87;21589;-71
2022/06/04 00:16:49;;;;;;;6.08;5.55;;;;;;;15.63;72.63;100480.22;1610223;89;21291;-74
2022/06/04 00:19:16;;;;;;;6.20;5.60;;;;;;;15.63;72.87;100477.52;1622688;87;20989;-73
2022/06/04 00:21:43;;;;;;;5.60;5.20;;;;;;;15.64;72.97;100479.94;1611078;88;20990;-76
2022/06/04 00:24:09;;;;;;;6.08;5.58;;;;;;;15.65;73.02;100476.69;1637056;87;21501;-71
2022/06/04 00:26:36;;;;;;;5.62;4.83;;;;;;;15.67;73.15;100477.25;1638309;87;21098;-76
2022/06/04 00:29:05;;;;;;;10.82;5.15;;;;;;;15.66;73.34;100472.91;1626855;87;21244;-75
2022/06/04 00:31:36;;;;;;;5.17;4.70;;;;;;;15.65;73.48;100477.51;1630967;87;20957;-76
2022/06/04 00:34:02;;;;;;;5.83;5.33;;;;;;;15.65;73.73;100474.80;1611604;87;21002;-76
2022/06/04 00:36:32;;;;;;;6.95;5.67;;;;;;;15.67;73.67;100472.66;1620704;88;21025;-73
2022/06/04 00:38:59;;;;;;;6.50;5.50;;;;;;;15.68;73.60;100470.76;1645844;87;21071;-74
2022/06/04 00:41:46;;;;;;;6.05;5.55;;;;;;;15.68;73.63;100469.41;1610494;89;21044;-78
2022/06/04 00:44:19;;;;;;;6.22;5.10;;;;;;;15.68;73.77;100467.48;1638015;87;21076;-79
2022/06/04 00:47:03;;;;;;;6.15;5.65;;;;;;;15.67;73.83;100462.34;1624267;88;21502;-84
2022/06/04 00:49:30;;;;;;;6.03;5.37;;;;;;;15.66;73.91;100464.23;1623835;88;21025;-82
2022/06/04 00:51:57;;;;;;;4.40;4.00;;;;;;;15.63;74.07;100468.02;1637961;87;21106;-76
2022/06/04 00:54:24;;;;;;;4.42;4.12;;;;;;;15.56;74.12;100466.89;1618529;88;21128;-74
2022/06/04 00:57:08;;;;;;;3.90;3.55;;;;;;;15.50;74.32;100469.27;1627516;87;21012;-75
2022/06/04 00:59:43;;;;;;;7.40;4.33;;;;;;;15.47;74.79;100462.20;1643444;86;21027;-74
2022/06/04 01:02:33;;;;;;;14.20;5.22;;;;;;;15.41;75.19;100466.77;1606561;89;21099;-71
2022/06/04 01:05:20;;;;;;;4.28;3.90;;;;;;;15.40;75.43;100465.13;1586687;89;21058;-71
2022/06/04 01:08:16;;;;;;;3.98;3.72;;;;;;;15.46;75.52;100464.09;1628033;88;20986;-74
2022/06/04 01:11:18;;;;;;;4.55;3.92;;;;;;;15.47;75.67;100463.02;1615226;87;21011;-71
2022/06/04 01:14:02;;;;;;;5.70;3.92;;;;;;;15.45;75.81;100465.70;1605201;87;21060;-71
2022/06/04 01:17:01;;;;;;;4.75;4.03;;;;;;;15.50;75.92;100463.02;1622145;87;21057;-72
2022/06/04 01:20:03;;;;;;;7.62;4.95;;;;;;;15.57;75.83;100463.64;1598936;88;21092;-71
2022/06/04 01:22:57;;;;;;;5.08;4.42;;;;;;;15.58;75.51;100455.26;1624204;88;21779;-70
2022/06/04 01:25:34;;;;;;;5.78;5.12;;;;;;;15.63;75.46;100459.88;1623984;88;21084;-72
2022/06/04 01:28:10;;;;;;;4.95;4.55;;;;;;;15.64;74.22;100470.98;1623845;88;21017;-71
2022/06/04 01:30:49;;;;;;;5.67;5.08;;;;;;;15.59;74.00;100465.53;1633234;86;21027;-73
2022/06/04 01:33:27;;;;;;;6.08;4.35;;;;;;;15.59;74.10;100466.36;1606544;89;21587;-70
2022/06/04 01:36:01;;;;;;;6.33;5.05;;;;;;;15.58;74.26;100466.64;1641056;87;21249;-72
2022/06/04 01:38:37;;;;;;;10.32;5.55;;;;;;;15.54;74.14;100458.19;1649717;87;21013;-71
2022/06/04 01:41:35;;;;;;;7.53;4.87;;;;;;;15.54;73.77;100454.69;1650159;86;21020;-71
2022/06/04 01:44:09;;;;;;;5.05;4.40;;;;;;;15.56;73.56;100453.87;1623841;88;21103;-69
2022/06/04 01:46:48;;;;;;;4.80;4.40;;;;;;;15.59;73.25;100452.80;1624365;88;21292;-70
2022/06/04 01:49:26;;;;;;;6.00;4.87;;;;;;;15.62;72.96;100460.96;1624280;88;21636;-70
2022/06/04 01:52:00;;;;;;;5.90;5.30;;;;;;;15.71;72.36;100456.66;1626411;87;21050;-71
2022/06/04 01:54:47;;;;;;;4.92;4.53;;;;;;;15.79;71.97;100460.20;1632980;87;21086;-72
2022/06/04 01:57:25;;;;;;;6.58;5.97;;;;;;;15.77;71.75;100454.25;1632962;87;21027;-71
2022/06/04 01:59:56;;;;;;;5.60;5.10;;;;;;;15.79;71.46;100449.89;1635994;87;21007;-73
2022/06/04 02:02:32;;;;;;;5.05;4.65;;;;;;;15.79;71.52;100449.89;1634211;87;21152;-72
2022/06/04 02:05:02;;;;;;;5.53;4.75;;;;;;;15.76;71.61;100447.73;1633584;87;20986;-72
2022/06/04 02:07:32;;;;;;;6.53;5.92;;;;;;;15.75;71.10;100444.20;1650849;87;21055;-71
2022/06/04 02:10:28;;;;;;;5.90;5.28;;;;;;;15.74;71.07;100444.45;1644213;86;21047;-70
2022/06/04 02:13:02;;;;;;;4.90;4.37;;;;;;;15.69;70.98;100436.57;1647867;87;21051;-72
2022/06/04 02:15:37;;;;;;;6.40;5.03;;;;;;;15.66;70.95;100440.36;1650964;86;21004;-71
2022/06/04 02:18:04;;;;;;;7.20;4.67;;;;;;;15.65;71.27;100442.25;1648587;87;21047;-72
2022/06/04 02:20:30;;;;;;;7.25;6.58;;;;;;;15.67;71.42;100440.64;1641936;87;21022;-72
2022/06/04 02:22:57;;;;;;;7.97;4.90;;;;;;;15.71;71.24;100441.73;1641057;86;21516;-71
2022/06/04 02:25:25;;;;;;;10.88;5.40;;;;;;;15.81;70.80;100441.78;1611412;89;21019;-70
2022/06/04 02:27:54;;;;;;;6.33;4.75;;;;;;;15.92;70.39;100450.21;1592138;89;21175;-72
2022/06/04 02:30:21;;;;;;;8.50;4.30;;;;;;;16.03;69.82;100452.42;1613811;87;21540;-70
2022/06/04 02:33:24;;;;;;;5.67;5.15;;;;;;;16.07;69.16;100452.97;1615079;86;21131;-72
2022/06/04 02:36:06;;;;;;;5.15;4.65;;;;;;;16.08;68.89;100459.22;1580867;90;21556;-72
2022/06/04 02:39:10;;;;;;;7.33;4.45;;;;;;;16.08;68.73;100466.01;1593232;90;21106;-72
2022/06/04 02:41:58;;;;;;;6.22;4.83;;;;;;;16.11;68.58;100464.92;1600048;88;21811;-72
2022/06/04 02:44:31;;;;;;;4.30;3.90;;;;;;;16.15;68.13;100465.23;1615455;88;20978;-71
2022/06/04 02:47:13;;;;;;;5.50;5.00;;;;;;;16.15;67.99;100467.94;1612163;89;21369;-71
2022/06/04 02:49:57;;;;;;;5.25;4.75;;;;;;;16.16;67.92;100474.19;1586362;90;21067;-71
2022/06/04 02:52:23;;;;;;;5.15;4.65;;;;;;;16.16;67.94;100476.91;1608061;89;21090;-73
2022/06/04 02:55:00;;;;;;;5.33;4.12;;;;;;;16.18;68.04;100472.01;1562987;90;21215;-72
2022/06/04 02:57:27;;;;;;;6.47;5.50;;;;;;;16.18;68.86;100470.65;1613571;89;22211;-72
2022/06/04 02:59:54;;;;;;;6.15;5.53;;;;;;;16.18;68.96;100472.83;1597426;88;21117;-71
2022/06/04 03:02:22;;;;;;;11.33;6.08;;;;;;;16.17;68.91;100469.02;1621543;88;21075;-71
2022/06/04 03:04:52;;;;;;;10.32;5.42;;;;;;;16.13;68.48;100469.55;1612034;89;21142;-72
2022/06/04 03:07:21;;;;;;;5.60;5.10;;;;;;;16.12;68.06;100470.63;1596504;88;21135;-71
2022/06/04 03:09:52;;;;;;;6.15;5.55;;;;;;;16.12;68.00;100480.13;1593660;89;21148;-71
2022/06/04 03:12:18;;;;;;;5.83;5.40;;;;;;;16.17;67.99;100474.44;1608574;87;21066;-70
2022/06/04 03:14:45;;;;;;;7.22;5.50;;;;;;;16.20;67.84;100471.20;1609906;88;20986;-70
2022/06/04 03:17:12;;;;;;;7.22;5.95;;;;;;;16.24;67.74;100469.05;1612294;89;21541;-74
2022/06/04 03:19:40;;;;;;;6.50;5.95;;;;;;;16.28;67.62;100467.42;1606579;88;21094;-71
2022/06/04 03:22:07;;;;;;;5.83;5.22;;;;;;;16.32;67.70;100471.23;1586918;89;21050;-71
2022/06/04 03:24:35;;;;;;;9.08;6.28;;;;;;;16.36;67.52;100474.21;1560826;90;21699;-72
2022/06/04 03:27:02;;;;;;;7.60;6.17;;;;;;;16.37;67.20;100465.80;1589679;87;21019;-72
2022/06/04 03:29:29;;;;;;;6.67;5.58;;;;;;;16.41;66.75;100466.08;1604967;88;21105;-71
2022/06/04 03:31:56;;;;;;;6.53;5.92;;;;;;;16.44;66.45;100472.34;1595877;89;21520;-71
2022/06/04 03:34:24;;;;;;;6.95;6.30;;;;;;;16.47;66.47;100455.50;1575237;89;21016;-71
2022/06/04 03:36:50;;;;;;;5.33;4.80;;;;;;;16.51;66.03;100453.87;1609721;87;21024;-71
2022/06/04 03:39:18;;;;;;;5.78;4.55;;;;;;;16.54;65.73;100456.07;1593032;90;21170;-71
2022/06/04 03:41:45;;;;;;;7.00;5.12;;;;;;;16.57;65.46;100464.48;1567540;91;21077;-70
2022/06/04 03:44:12;;;;;;;4.65;4.25;;;;;;;16.60;65.04;100463.14;1615344;87;21137;-72
2022/06/04 03:46:39;;;;;;;11.50;5.40;;;;;;;16.64;64.97;100460.73;1634916;87;21200;-70
2022/06/04 03:49:05;;;;;;;6.33;4.35;;;;;;;16.67;64.96;100464.25;1618517;88;21043;-72
2022/06/04 03:51:32;;;;;;;6.80;4.72;;;;;;;16.72;64.97;100461.53;1618670;88;21476;-71
2022/06/04 03:53:59;;;;;;;4.62;4.10;;;;;;;16.78;64.96;100470.78;1612557;87;21079;-72
2022/06/04 03:56:25;;;;;;;5.08;4.58;;;;;;;16.84;64.86;100467.50;1610091;87;22243;-70
2022/06/04 03:58:53;;;;;;;4.72;4.12;;;;;;;16.88;64.91;100472.69;1621922;87;21061;-71
2022/06/04 04:01:27;;;;;;;11.43;4.17;;;;;;;16.96;64.59;100474.84;1606850;89;21069;-72
2022/06/04 04:03:55;;;;;;;6.20;4.12;;;;;;;17.00;64.35;100476.74;1611062;89;21126;-71
2022/06/04 04:06:30;;;;;;;5.72;4.35;;;;;;;17.09;64.17;100482.98;1610949;89;21153;-70
2022/06/04 04:08:59;;;;;;;5.40;4.72;;;;;;;17.18;63.89;100482.70;1650829;86;21482;-70
2022/06/04 04:11:27;;;;;;;3.52;3.27;;;;;;;17.22;63.90;100483.23;1634256;87;21114;-72
2022/06/04 04:13:53;;;;;;;3.92;3.62;;;;;;;17.29;63.76;100482.42;1622144;87;21091;-72
2022/06/04 04:16:22;;;;;;;4.03;3.65;;;;;;;17.34;63.51;100487.85;1606413;89;21365;-71
2022/06/04 04:18:50;;;;;;;4.35;3.35;;;;;;;17.37;63.11;100485.93;1605227;89;21027;-71
2022/06/04 04:21:20;;;;;;;5.03;3.70;;;;;;;17.43;63.22;100487.55;1635083;87;21103;-69
2022/06/04 04:23:47;;;;;;;6.15;3.65;;;;;;;17.50;62.96;100483.74;1619602;87;21043;-71
2022/06/04 04:26:15;;;;;;;5.28;3.02;;;;;;;17.56;62.89;100485.34;1635668;87;21060;-72
2022/06/04 04:28:41;;;;;;;3.85;2.83;;;;;;;17.59;62.43;100492.45;1635590;87;21003;-71
2022/06/04 04:31:15;;;;;;;3.90;3.50;;;;;;;17.61;62.31;100492.97;1635534;87;21087;-70
2022/06/04 04:33:42;;;;;;;12.33;11.03;;;;;;;17.64;61.98;100491.63;1631168;87;21552;-70
2022/06/04 04:36:09;;;;;;;14.23;12.90;;;;;;;17.68;61.78;100497.59;1632526;87;21051;-72
2022/06/04 04:38:37;;;;;;;6.35;5.55;;;;;;;17.74;61.66;100499.75;1622830;87;21014;-72
2022/06/04 04:41:14;;;;;;;4.70;4.03;;;;;;;17.78;61.33;100500.28;1622842;88;21052;-74
2022/06/04 04:43:41;;;;;;;7.55;5.80;;;;;;;17.82;61.33;100502.72;1583173;90;21090;-72
2022/06/04 04:46:11;;;;;;;9.10;7.10;;;;;;;17.85;61.32;100501.33;1632562;87;20960;-72
2022/06/04 04:48:38;;;;;;;13.55;9.98;;;;;;;17.87;61.30;100504.60;1638792;86;21051;-74
2022/06/04 04:51:05;;;;;;;21.57;13.35;;;;;;;17.91;61.22;100502.95;1616376;88;20983;-71
2022/06/04 04:53:31;;;;;;;38.15;27.05;;;;;;;17.96;61.37;100510.27;1632949;87;21067;-71
2022/06/04 04:55:58;;;;;;;52.88;35.98;;;;;;;17.99;61.19;100506.44;1616366;88;21157;-72
2022/06/04 04:58:25;;;;;;;56.90;38.28;;;;;;;18.02;61.01;100495.56;1632793;87;21271;-70
2022/06/04 05:00:52;;;;;;;52.58;35.50;;;;;;;18.04;61.10;100496.89;1608968;88;21077;-71
2022/06/04 05:03:19;;;;;;;45.23;30.77;;;;;;;18.05;61.41;100491.72;1630966;86;20986;-71
2022/06/04 05:05:48;;;;;;;42.75;27.42;;;;;;;18.11;61.46;100489.80;1614458;88;20995;-71
2022/06/04 05:08:14;;;;;;;31.62;23.05;;;;;;;18.14;61.38;100489.22;1604307;88;21058;-71
2022/06/04 05:10:43;;;;;;;28.50;22.65;;;;;;;18.17;61.45;100494.95;1610004;89;21644;-76
2022/06/04 05:13:10;;;;;;;22.00;17.07;;;;;;;18.22;61.42;100494.10;1626365;87;20988;-73
2022/06/04 05:15:38;;;;;;;16.45;12.53;;;;;;;18.27;61.64;100494.86;1596487;89;21089;-75
2022/06/04 05:18:04;;;;;;;13.95;8.53;;;;;;;18.27;61.59;100492.14;1634017;87;21036;-74
2022/06/04 05:20:31;;;;;;;6.72;6.03;;;;;;;18.32;61.83;100494.59;1639339;87;21002;-74
2022/06/04 05:22:58;;;;;;;4.67;4.20;;;;;;;18.35;61.83;100489.39;1620232;87;22182;-74
2022/06/04 05:25:25;;;;;;;5.00;3.95;;;;;;;18.40;61.63;100489.36;1644652;87;21597;-73
2022/06/04 05:27:52;;;;;;;4.50;4.10;;;;;;;18.45;61.52;100497.50;1637323;87;20963;-73
2022/06/04 05:30:19;;;;;;;3.87;3.58;;;;;;;18.50;61.45;100495.30;1650729;87;21071;-75
2022/06/04 05:32:48;;;;;;;9.18;5.92;;;;;;;18.56;61.40;100491.48;1584977;89;21082;-73
2022/06/04 05:35:14;;;;;;;8.03;5.80;;;;;;;18.61;61.37;100480.52;1624233;88;21332;-71
2022/06/04 05:37:42;;;;;;;6.05;5.47;;;;;;;18.68;61.36;100482.38;1611001;89;21079;-72
2022/06/04 05:40:09;;;;;;;10.32;7.15;;;;;;;18.74;61.38;100482.62;1610882;89;21082;-73
2022/06/04 05:42:36;;;;;;;5.47;4.97;;;;;;;18.79;61.24;100485.30;1610839;89;21606;-72
2022/06/04 05:45:04;;;;;;;6.12;4.90;;;;;;;18.84;61.13;100481.73;1634226;87;21023;-75
2022/06/04 05:47:31;;;;;;;6.10;5.53;;;;;;;18.84;60.76;100482.54;1625174;87;21195;-72
2022/06/04 05:49:59;;;;;;;6.95;3.80;;;;;;;18.86;60.83;100480.33;1621988;87;20991;-72
2022/06/04 05:52:25;;;;;;;6.80;3.27;;;;;;;18.87;61.17;100482.50;1605641;89;21090;-73
2022/06/04 05:54:52;;;;;;;2.77;2.58;;;;;;;18.89;61.19;100480.33;1613029;87;21579;-73
2022/06/04 05:57:18;;;;;;;2.95;2.65;;;;;;;18.95;60.73;100492.24;1611162;89;21073;-74
2022/06/04 05:59:45;;;;;;;2.40;2.17;;;;;;;18.99;60.09;100483.75;1613596;89;21116;-76
2022/06/04 06:02:11;;;;;;;4.75;3.90;;;;;;;19.05;59.82;100485.89;1613099;89;21602;-73
2022/06/04 06:04:38;;;;;;;12.30;7.28;;;;;;;19.09;59.56;100488.30;1623961;87;21092;-75
2022/06/04 06:07:06;;;;;;;25.20;15.63;;;;;;;19.12;58.98;100488.56;1608401;88;21047;-73
2022/06/04 06:09:34;;;;;;;14.05;9.18;;;;;;;19.19;58.63;100486.84;1574134;89;21087;-73
2022/06/04 06:12:04;;;;;;;14.98;9.83;;;;;;;19.25;58.87;100484.89;1608337;88;21083;-73
2022/06/04 06:14:32;;;;;;;10.30;8.98;;;;;;;19.30;58.73;100483.48;1595791;89;21031;-73
2022/06/04 06:16:59;;;;;;;8.68;6.08;;;;;;;19.36;57.85;100479.60;1615031;87;20999;-74
2022/06/04 06:19:26;;;;;;;6.67;4.87;;;;;;;19.40;57.43;100475.19;1620207;87;21064;-74
2022/06/04 06:21:53;;;;;;;4.33;3.47;;;;;;;19.44;56.71;100468.90;1635092;87;21045;-75
2022/06/04 06:24:21;;;;;;;3.83;3.52;;;;;;;19.50;56.99;100474.57;1605179;88;21110;-73
2022/06/04 06:26:52;;;;;;;6.28;3.55;;;;;;;19.53;57.03;100468.52;1593534;90;20963;-74
2022/06/04 06:29:20;;;;;;;5.78;3.95;;;;;;;19.59;56.55;100465.19;1594005;90;21062;-73
2022/06/04 06:31:46;;;;;;;4.40;3.85;;;;;;;19.65;55.12;100463.22;1593646;90;21270;-74
2022/06/04 06:34:13;;;;;;;11.20;7.53;;;;;;;19.72;54.74;100459.57;1593677;90;21037;-75
2022/06/04 06:36:40;;;;;;;12.40;6.60;;;;;;;19.77;52.32;100450.77;1611244;87;21540;-73
2022/06/04 06:39:07;;;;;;;8.30;5.20;;;;;;;19.83;52.51;100448.80;1645270;86;20968;-74
2022/06/04 06:41:34;;;;;;;4.47;4.03;;;;;;;19.87;52.13;100449.28;1650961;86;21505;-74
2022/06/04 06:44:03;;;;;;;4.67;4.20;;;;;;;19.93;51.10;100439.92;1625016;86;21733;-73
2022/06/04 06:46:39;;;;;;;4.78;4.28;;;;;;;19.98;50.74;100441.77;1607189;88;21048;-75
2022/06/04 06:49:24;;;;;;;3.83;3.15;;;;;;;20.01;50.07;100441.98;1580506;90;21610;-73
2022/06/04 06:51:58;;;;;;;5.60;3.00;;;;;;;20.05;50.20;100436.74;1605924;89;21503;-74
2022/06/04 06:54:31;;;;;;;4.95;3.00;;;;;;;20.12;50.55;100425.47;1609608;89;21022;-74
2022/06/04 06:56:57;;;;;;;2.90;2.17;;;;;;;20.16;50.80;100425.12;1620862;88;21050;-75
2022/06/04 06:59:25;;;;;;;3.40;2.10;;;;;;;20.22;50.69;100426.14;1649454;86;21039;-75
2022/06/04 07:01:52;;;;;;;3.40;2.17;;;;;;;20.28;49.95;100426.87;1648290;87;21538;-76
2022/06/04 07:04:21;;;;;;;2.85;2.33;;;;;;;20.35;49.45;100424.60;1637657;87;21059;-74
2022/06/04 07:06:51;;;;;;;2.25;2.10;;;;;;;20.41;48.49;100420.14;1649387;87;20984;-76
2022/06/04 07:09:23;;;;;;;3.55;1.95;;;;;;;20.47;48.22;100415.96;1620940;87;21041;-74
2022/06/04 07:11:50;;;;;;;3.00;2.08;;;;;;;20.50;48.13;100412.07;1620607;88;21745;-74
2022/06/04 07:14:20;;;;;;;2.75;1.92;;;;;;;20.62;46.96;100413.80;1649098;86;21007;-73
2022/06/04 07:16:47;;;;;;;3.22;2.52;;;;;;;20.62;46.96;100413.80;1640454;87;21509;-74
2022/06/04 07:19:16;;;;;;;10.50;2.50;;;;;;;20.71;47.89;100416.11;1649582;86;21019;-73
2022/06/04 07:21:44;;;;;;;2.62;2.20;;;;;;;20.80;47.18;100408.84;1660019;85;27066;-73
2022/06/04 07:24:11;;;;;;;6.30;2.50;;;;;;;20.84;46.22;100403.57;1688815;85;21595;-73
2022/06/04 07:26:40;;;;;;;3.55;2.12;;;;;;;20.88;46.32;100401.30;1688839;84;21016;-73
2022/06/04 07:29:08;;;;;;;2.80;2.05;;;;;;;20.97;46.13;100395.94;1692997;84;20992;-73
2022/06/04 07:31:34;;;;;;;2.27;2.08;;;;;;;21.05;45.40;100402.11;1695983;84;20953;-71
2022/06/04 07:34:01;;;;;;;1.70;1.60;;;;;;;21.11;44.38;100402.80;1695517;84;21043;-70
2022/06/04 07:36:34;;;;;;;1.55;1.45;;;;;;;21.13;44.25;100396.48;1676785;84;21490;-71
2022/06/04 07:39:01;;;;;;;;;;;;;;;21.15;44.10;100391.56;1648764;83;21892;-73
2022/06/04 07:41:34;;;;;;;2.27;2.08;;;;;;;21.23;44.26;100390.84;1666823;84;20270;-72
2022/06/04 07:44:00;;;;;;;1.60;1.50;;;;;;;21.29;43.12;100384.17;1690132;84;20940;-72
2022/06/04 07:46:29;;;;;;;1.70;1.60;;;;;;;21.35;43.13;100386.22;1672147;83;21039;-73
2022/06/04 07:49:01;;;;;;;4.08;1.90;;;;;;;21.40;43.56;100396.52;1693581;83;21099;-76
2022/06/04 07:51:28;;;;;;;1.67;1.57;;;;;;;21.47;43.33;100392.02;1693095;84;21127;-74
2022/06/04 07:53:55;;;;;;;3.42;2.20;;;;;;;21.52;43.19;100376.85;1724261;82;20976;-73
2022/06/04 07:56:23;;;;;;;2.08;1.98;;;;;;;21.59;41.67;100382.71;1707013;83;21567;-72
2022/06/04 07:58:50;;;;;;;1.98;1.77;;;;;;;21.62;39.89;100383.48;1724443;83;21579;-72
2022/06/04 08:01:18;;;;;;;1.70;1.60;;;;;;;21.62;40.57;100382.94;1669543;84;21021;-75
2022/06/04 08:03:46;;;;;;;1.80;1.70;;;;;;;21.63;40.40;100387.86;1653576;86;21154;-71
2022/06/04 08:06:14;;;;;;;2.87;1.82;;;;;;;21.60;40.56;100386.52;1617947;88;21631;-73
2022/06/04 08:08:41;;;;;;;11.08;2.42;;;;;;;21.56;40.83;100377.86;1639432;84;21107;-71
2022/06/04 08:13:52;;;;;;;2.12;2.00;;;;;;;21.58;41.43;100378.38;1663783;84;21062;-69
2022/06/04 08:16:19;;;;;;;1.85;1.45;;;;;;;21.66;41.81;100383.94;1697757;83;21552;-69
2022/06/04 08:18:47;;;;;;;2.87;1.85;;;;;;;21.77;42.39;100380.43;1693568;83;21045;-70
2022/06/04 08:21:15;;;;;;;2.98;2.20;;;;;;;21.89;42.47;100379.32;1693892;84;21011;-70
2022/06/04 08:23:44;;;;;;;2.00;1.90;;;;;;;22.00;41.60;100376.64;1693886;83;21079;-70
2022/06/04 08:26:13;;;;;;;3.30;1.70;;;;;;;22.01;40.73;100378.27;1705986;83;21591;-71
2022/06/04 08:28:40;;;;;;;3.98;3.17;;;;;;;22.01;40.82;100373.34;1661954;85;21432;-69
2022/06/04 08:31:10;;;;;;;2.80;1.80;;;;;;;21.97;40.92;100367.66;1632411;87;21058;-69
2022/06/04 08:33:38;;;;;;;4.00;1.80;;;;;;;22.00;40.87;100370.36;1659350;84;21047;-71
2022/06/04 08:36:06;;;;;;;4.25;1.57;;;;;;;22.09;41.00;100360.28;1676146;84;21067;-71
2022/06/04 08:38:33;;;;;;;2.40;2.20;;;;;;;22.12;40.61;100361.83;1665168;86;21084;-73
2022/06/04 08:41:01;;;;;;;1.70;1.60;;;;;;;22.17;40.75;100367.75;1665219;86;21487;-73
2022/06/04 08:44:01;;;;;;;1.50;1.40;;;;;;;22.24;39.80;100357.73;1675239;84;21102;-73
2022/06/04 08:46:49;;;;;;;4.12;1.82;;;;;;;22.32;40.48;100355.05;1695271;84;21536;-73
2022/06/04 08:49:29;;;;;;;1.45;1.35;;;;;;;22.36;39.53;100349.19;1678355;83;21001;-72
2022/06/04 08:51:58;;;;;;;1.52;1.22;;;;;;;22.33;39.27;100348.45;1679344;84;21531;-75
2022/06/04 09:00:15;;;;;;;2.10;1.90;;;;;;;22.26;38.62;100355.47;1686000;84;21124;-77
2022/06/04 09:02:50;;;;;;;1.65;1.55;;;;;;;22.19;39.33;100350.45;1662048;86;21544;-75
2022/06/04 09:05:40;;;;;;;3.42;1.60;;;;;;;22.24;40.01;100344.84;1664471;86;21028;-76
2022/06/04 09:08:15;;;;;;;2.05;1.82;;;;;;;22.32;39.58;100349.56;1665058;85;21256;-73
2022/06/04 09:10:51;;;;;;;2.90;1.60;;;;;;;22.33;39.63;100347.08;1670058;84;20987;-72
2022/06/04 09:13:43;;;;;;;1.75;1.65;;;;;;;22.30;38.80;100341.42;1693600;84;21094;-76
2022/06/04 09:16:27;;;;;;;1.85;1.75;;;;;;;22.29;39.25;100340.61;1685107;84;21027;-76
2022/06/04 09:18:59;;;;;;;2.62;2.42;;;;;;;22.39;39.55;100336.81;1706108;83;21087;-76
2022/06/04 09:21:38;;;;;;;1.82;1.50;;;;;;;22.50;39.50;100337.59;1680809;83;21095;-74
2022/06/04 09:24:05;;;;;;;1.62;1.52;;;;;;;22.55;38.23;100333.34;1662344;86;20991;-73
2022/06/04 09:26:56;;;;;;;4.85;2.58;;;;;;;22.59;38.86;100337.08;1651176;85;21079;-76
2022/06/04 09:29:59;;;;;;;2.70;1.85;;;;;;;22.71;39.55;100328.87;1618124;87;21103;-77
2022/06/04 09:32:46;;;;;;;2.00;1.80;;;;;;;22.82;40.34;100322.81;1630471;88;21152;-73
2022/06/04 09:35:18;;;;;;;1.57;1.47;;;;;;;22.90;39.20;100328.89;1646138;85;22344;-76
2022/06/04 09:37:46;;;;;;;2.08;1.95;;;;;;;22.92;38.64;100323.91;1655916;86;21072;-73
2022/06/04 09:40:21;;;;;;;1.57;1.47;;;;;;;22.96;38.74;100326.27;1644352;85;21067;-74
2022/06/04 09:42:48;;;;;;;10.90;2.55;;;;;;;23.00;38.87;100320.94;1620434;88;21074;-74
2022/06/04 09:45:27;;;;;;;1.80;1.70;;;;;;;23.04;39.38;100319.98;1625717;87;21558;-74
2022/06/04 09:47:55;;;;;;;2.90;1.47;;;;;;;23.12;39.32;100317.61;1646761;85;21267;-76
2022/06/04 09:50:34;;;;;;;3.85;1.70;;;;;;;23.24;39.46;100310.93;1658401;86;20954;-77
2022/06/04 09:53:18;;;;;;;1.62;1.52;;;;;;;23.32;39.48;100304.08;1663119;86;21007;-75
2022/06/04 09:56:01;;;;;;;8.15;1.62;;;;;;;23.39;39.16;100307.74;1646667;87;21548;-78
2022/06/04 09:58:33;;;;;;;2.65;2.05;;;;;;;23.52;38.77;100308.19;1646176;87;22287;-79
2022/06/04 10:01:18;;;;;;;1.72;1.62;;;;;;;23.58;38.59;100311.03;1642353;86;21039;-79
2022/06/04 10:03:58;;;;;;;2.15;1.60;;;;;;;23.62;37.98;100305.70;1630461;87;22196;-81
2022/06/04 10:06:26;;;;;;;1.98;1.45;;;;;;;23.64;37.66;100306.20;1646934;87;21034;-78
2022/06/04 10:11:52;;;;;;;1.87;1.77;;;;;;;23.27;37.42;100316.58;1647612;86;21045;-80
2022/06/04 10:14:34;;;;;;;4.17;1.82;;;;;;;23.31;38.06;100316.19;1646420;87;21153;-79
2022/06/04 10:17:00;;;;;;;2.70;1.80;;;;;;;23.43;38.34;100308.72;1644081;85;21050;-80
2022/06/04 10:19:33;;;;;;;1.62;1.40;;;;;;;23.57;38.09;100302.55;1674687;85;21042;-79
2022/06/04 10:22:13;;;;;;;3.08;1.70;;;;;;;23.65;37.99;100292.69;1674938;85;21068;-79
2022/06/04 10:24:56;;;;;;;3.60;1.70;;;;;;;23.66;38.16;100288.81;1638052;85;21042;-75
2022/06/04 10:27:36;;;;;;;;;;;;;;;23.64;38.10;100281.48;1621553;88;21089;-77
2022/06/04 10:30:14;;;;;;;2.83;1.20;;;;;;;23.57;37.57;100292.94;1619597;87;20147;-78
2022/06/04 10:33:13;;;;;;;4.80;1.87;;;;;;;23.61;38.91;100290.34;1634439;85;21074;-75
2022/06/04 10:36:01;;;;;;;4.22;1.85;;;;;;;23.60;37.16;100284.04;1656577;85;21039;-76
2022/06/04 10:38:36;;;;;;;2.30;2.10;;;;;;;23.66;36.37;100288.25;1647547;87;21079;-77
2022/06/04 10:41:37;;;;;;;1.95;1.67;;;;;;;23.60;36.88;100278.55;1647408;87;22277;-75
2022/06/04 10:44:36;;;;;;;1.50;1.40;;;;;;;23.67;36.53;100276.14;1650326;85;21017;-75
2022/06/04 10:47:35;;;;;;;1.70;1.60;;;;;;;23.84;36.61;100273.39;1597500;88;21236;-78
2022/06/04 10:50:14;;;;;;;1.92;1.45;;;;;;;23.99;36.95;100277.58;1565452;89;21016;-78
2022/06/04 10:53:03;;;;;;;3.35;1.90;;;;;;;24.22;36.88;100281.00;1639258;87;21027;-81
2022/06/04 10:55:40;;;;;;;3.00;1.82;;;;;;;24.29;35.33;100272.48;1611544;89;21312;-79
2022/06/04 10:58:22;;;;;;;2.15;1.55;;;;;;;24.22;35.75;100266.66;1648780;86;21036;-78
2022/06/04 11:01:16;;;;;;;1.37;1.27;;;;;;;24.32;35.90;100258.63;1622898;87;21020;-78
2022/06/04 11:04:10;;;;;;;3.83;3.52;;;;;;;24.50;35.42;100259.41;1666487;86;21555;-78
2022/06/04 11:06:43;;;;;;;4.20;2.08;;;;;;;24.58;35.15;100255.25;1637982;87;21533;-76
2022/06/04 11:09:14;;;;;;;1.55;1.45;;;;;;;24.69;35.56;100255.14;1666288;86;21253;-79
2022/06/04 11:11:51;;;;;;;1.90;1.70;;;;;;;24.68;35.16;100254.08;1636165;87;20990;-79
2022/06/04 11:14:43;;;;;;;1.50;1.40;;;;;;;24.67;35.55;100250.52;1666453;86;21111;-79
2022/06/04 11:17:31;;;;;;;1.50;1.40;;;;;;;24.75;35.46;100257.92;1637946;87;21010;-79
2022/06/04 11:20:19;;;;;;;1.45;1.35;;;;;;;24.88;35.60;100257.51;1660152;86;21015;-77
2022/06/04 11:22:57;;;;;;;2.62;2.30;;;;;;;24.95;35.59;100259.16;1637273;87;21784;-77
2022/06/04 11:25:32;;;;;;;2.30;1.47;;;;;;;25.02;35.23;100249.82;1661856;86;21139;-77
2022/06/04 11:28:05;;;;;;;1.98;1.87;;;;;;;25.04;34.28;100248.90;1640726;87;21085;-77
2022/06/04 11:30:52;;;;;;;1.90;1.80;;;;;;;24.88;33.90;100242.94;1639172;87;21065;-78
2022/06/04 11:34:09;;;;;;;1.40;1.30;;;;;;;24.80;34.36;100234.09;1629787;87;21174;-76
2022/06/04 11:36:56;;;;;;;2.02;1.77;;;;;;;24.88;35.31;100235.49;1637201;87;21567;-77
2022/06/04 11:39:50;;;;;;;1.90;1.80;;;;;;;25.11;35.30;100227.74;1636860;87;20946;-76
2022/06/04 11:42:43;;;;;;;2.25;2.15;;;;;;;25.33;35.10;100237.63;1637058;87;25124;-76
2022/06/04 11:45:56;;;;;;;1.70;1.60;;;;;;;25.38;34.54;100235.48;1642893;87;21122;-81
2022/06/04 11:48:52;;;;;;;3.47;2.00;;;;;;;25.46;34.55;100226.37;1689878;84;21119;-78
2022/06/04 11:51:55;;;;;;;1.50;1.40;;;;;;;25.59;33.98;100232.20;1690024;84;21146;-76
2022/06/04 11:54:25;;;;;;;;;;;;;;;25.58;33.81;100227.02;1670590;83;21055;-76
2022/06/04 11:57:28;;;;;;;2.22;1.60;;;;;;;25.40;33.87;100226.33;1678324;84;20145;-76
2022/06/04 12:00:09;;;;;;;2.30;1.35;;;;;;;25.36;34.48;100224.58;1670639;84;21076;-80
2022/06/04 12:02:52;;;;;;;2.77;1.47;;;;;;;25.29;34.72;100227.86;1641019;84;21035;-77
2022/06/04 12:05:49;;;;;;;1.35;1.30;;;;;;;25.24;34.42;100230.00;1671476;84;21268;-78
2022/06/04 12:08:23;;;;;;;2.90;1.98;;;;;;;25.11;34.74;100222.23;1672313;85;20999;-77
2022/06/04 12:11:32;;;;;;;1.50;1.40;;;;;;;24.98;34.66;100206.22;1662109;85;21561;-78
2022/06/04 12:14:38;;;;;;;2.37;1.62;;;;;;;24.99;35.13;100212.50;1662335;85;21003;-77